Time;durP1;ratioP1;P1;durP2;ratioP2;P2;SDS_P1;SDS_P2;PMS_P1;PMS_P2;Temp;Humidity;BMP_temperature;BMP_pressure;BME280_temperature;BME280_humidity;BME280_pressure;Samples;Min_cycle;Max_cycle;Signal;HPM_P1;HPM_P2
2023/01/10 00:01:29;;;;;;;10.75;4.95;;;20.30;69.30;;;;;;5004484;28;20121;-73
2023/01/10 00:03:55;;;;;;;11.55;4.53;;;20.30;69.30;;;;;;5003635;28;20118;-72
2023/01/10 00:06:21;;;;;;;11.98;4.95;;;20.30;69.10;;;;;;5000421;28;20053;-73
2023/01/10 00:08:47;;;;;;;19.17;4.95;;;20.30;69.20;;;;;;4986897;28;20037;-72
2023/01/10 00:13:57;;;;;;;9.00;4.30;;;20.30;69.20;;;;;;5002080;28;20092;-73
2023/01/10 00:16:23;;;;;;;22.27;4.63;;;20.30;69.30;;;;;;5005174;28;20026;-73
2023/01/10 00:18:49;;;;;;;13.13;4.40;;;20.30;69.10;;;;;;5005452;28;21154;-73
2023/01/10 00:21:15;;;;;;;12.88;4.53;;;20.30;69.10;;;;;;4994995;28;20113;-74
2023/01/10 00:23:42;;;;;;;10.65;4.38;;;20.30;69.20;;;;;;5002579;28;20120;-73
2023/01/10 00:26:09;;;;;;;9.18;4.38;;;20.30;69.20;;;;;;5001532;28;20057;-74
2023/01/10 00:28:35;;;;;;;8.68;4.03;;;20.30;69.20;;;;;;4993129;28;20084;-74
2023/01/10 00:31:05;;;;;;;16.08;4.22;;;20.30;69.30;;;;;;5004307;28;20109;-73
2023/01/10 00:33:31;;;;;;;;;;;20.30;69.20;;;;;;5006739;28;20022;-73
2023/01/10 00:35:58;;;;;;;7.25;3.47;;;20.30;69.30;;;;;;5007412;28;20276;-73
2023/01/10 00:38:24;;;;;;;11.50;4.20;;;20.30;69.40;;;;;;4986383;28;20044;-74
2023/01/10 00:40:49;;;;;;;15.65;4.13;;;20.30;69.10;;;;;;5004360;28;20078;-74
2023/01/10 00:46:01;;;;;;;15.00;4.25;;;20.40;69.30;;;;;;5003914;28;20022;-74
2023/01/10 00:48:27;;;;;;;14.00;4.25;;;20.30;69.20;;;;;;5005595;28;20048;-73
2023/01/10 00:50:53;;;;;;;9.60;4.00;;;20.40;69.50;;;;;;4987498;28;20390;-73
2023/01/10 00:53:20;;;;;;;23.27;4.95;;;20.40;69.20;;;;;;4983954;28;20034;-72
2023/01/10 00:55:46;;;;;;;19.45;4.47;;;20.30;69.20;;;;;;5006504;28;20493;-72
2023/01/10 00:58:13;;;;;;;15.15;5.15;;;20.30;68.70;;;;;;5007629;28;20034;-72
2023/01/10 01:00:40;;;;;;;13.52;4.90;;;20.30;68.90;;;;;;5008597;28;20026;-73
2023/01/10 01:03:06;;;;;;;18.50;4.57;;;20.30;68.80;;;;;;5008452;28;20029;-72
2023/01/10 01:05:38;;;;;;;20.52;4.90;;;20.30;68.40;;;;;;5010333;28;20453;-72
2023/01/10 01:08:04;;;;;;;10.50;4.28;;;20.30;68.50;;;;;;5010475;28;20033;-72
2023/01/10 01:10:30;;;;;;;14.32;4.18;;;20.20;68.40;;;;;;5009478;28;20037;-73
2023/01/10 01:13:06;;;;;;;19.83;4.43;;;20.20;68.40;;;;;;5010111;28;20104;-74
2023/01/10 01:15:34;;;;;;;11.38;4.25;;;20.20;68.40;;;;;;4991820;28;20167;-72
2023/01/10 01:18:00;;;;;;;9.13;3.60;;;20.20;68.50;;;;;;5009800;28;20577;-72
2023/01/10 01:20:26;;;;;;;11.57;3.97;;;20.20;68.50;;;;;;4994773;28;20513;-73
2023/01/10 01:22:52;;;;;;;10.15;4.00;;;20.30;68.60;;;;;;5010002;28;20510;-73
2023/01/10 01:25:18;;;;;;;13.93;4.20;;;20.20;68.50;;;;;;5010194;28;20025;-73
2023/01/10 01:27:43;;;;;;;9.63;3.58;;;20.30;68.60;;;;;;5008923;28;20018;-74
2023/01/10 01:30:10;;;;;;;13.57;3.97;;;20.20;68.50;;;;;;4992876;28;20068;-72
2023/01/10 01:32:36;;;;;;;11.65;4.22;;;20.30;68.60;;;;;;4996614;28;20314;-73
2023/01/10 01:35:04;;;;;;;14.43;3.97;;;20.20;68.50;;;;;;5010360;28;20467;-72
2023/01/10 01:37:30;;;;;;;10.30;3.90;;;20.30;68.60;;;;;;4980412;28;20477;-73
2023/01/10 01:39:56;;;;;;;7.35;3.70;;;20.30;68.60;;;;;;4992383;28;20416;-74
2023/01/10 01:42:27;;;;;;;6.25;3.40;;;20.30;68.50;;;;;;5008942;28;20084;-73
2023/01/10 01:45:08;;;;;;;9.30;3.45;;;20.30;68.60;;;;;;5009889;28;20113;-73
2023/01/10 01:47:36;;;;;;;9.27;3.70;;;20.30;68.60;;;;;;4975328;28;20030;-73
2023/01/10 01:50:03;;;;;;;7.97;3.65;;;20.30;68.50;;;;;;4992398;28;20037;-73
2023/01/10 01:52:33;;;;;;;8.50;3.53;;;20.30;68.50;;;;;;5007489;28;20448;-73
2023/01/10 01:55:01;;;;;;;13.90;3.90;;;20.30;68.50;;;;;;4990222;28;20041;-74
2023/01/10 01:57:30;;;;;;;10.77;3.50;;;20.30;68.50;;;;;;4989741;28;20088;-73
2023/01/10 01:59:57;;;;;;;10.02;3.50;;;20.30;68.50;;;;;;5009496;28;20026;-73
2023/01/10 02:02:27;;;;;;;7.30;3.67;;;20.30;68.50;;;;;;5007562;28;20030;-72
2023/01/10 02:05:01;;;;;;;8.88;4.00;;;20.30;68.60;;;;;;4992000;28;20045;-73
2023/01/10 02:07:30;;;;;;;7.18;3.65;;;20.30;68.50;;;;;;5008524;28;20148;-74
2023/01/10 02:10:14;;;;;;;8.55;3.88;;;20.20;68.50;;;;;;5008378;28;20030;-73
2023/01/10 02:12:42;;;;;;;12.40;3.97;;;20.30;68.60;;;;;;5009074;28;20396;-72
2023/01/10 02:15:10;;;;;;;6.85;3.47;;;20.30;68.60;;;;;;5009969;28;20488;-72
2023/01/10 02:17:37;;;;;;;9.25;3.70;;;20.20;68.50;;;;;;5009769;28;20022;-72
2023/01/10 02:20:07;;;;;;;12.43;3.30;;;20.20;68.40;;;;;;5010374;28;20045;-73
2023/01/10 02:22:40;;;;;;;7.32;3.55;;;20.30;69.20;;;;;;4993943;28;20030;-73
2023/01/10 02:25:12;;;;;;;7.93;3.63;;;20.30;68.70;;;;;;4991074;28;20037;-74
2023/01/10 02:27:40;;;;;;;7.13;3.17;;;20.20;68.50;;;;;;4987742;28;20494;-74
2023/01/10 02:30:37;;;;;;;7.57;3.50;;;20.20;68.60;;;;;;5009859;28;20041;-74
2023/01/10 02:33:21;;;;;;;8.32;3.50;;;20.30;68.70;;;;;;5010927;28;20341;-74
2023/01/10 02:36:15;;;;;;;9.50;3.22;;;20.20;68.60;;;;;;5010585;28;20055;-73
2023/01/10 02:38:59;;;;;;;6.35;3.40;;;20.20;68.50;;;;;;4976387;28;20113;-74
2023/01/10 02:41:43;;;;;;;12.98;3.20;;;20.20;68.60;;;;;;5003839;28;20052;-82
2023/01/10 02:44:50;;;;;;;7.80;3.53;;;20.20;68.40;;;;;;4978871;28;20421;-81
2023/01/10 02:47:16;;;;;;;20.38;4.55;;;20.10;61.80;;;;;;4975390;28;20057;-72
2023/01/10 02:49:47;;;;;;;23.38;5.03;;;19.90;58.90;;;;;;5010386;28;20107;-73
2023/01/10 02:52:34;;;;;;;12.57;3.92;;;19.90;60.10;;;;;;5009455;28;20444;-73
2023/01/10 02:55:02;;;;;;;10.68;3.88;;;20.00;61.60;;;;;;5010602;28;20831;-72
2023/01/10 02:57:50;;;;;;;17.23;4.20;;;20.00;62.60;;;;;;4991051;28;20037;-73
2023/01/10 03:00:48;;;;;;;8.43;3.20;;;20.00;63.20;;;;;;5008739;28;20070;-73
2023/01/10 03:03:32;;;;;;;11.75;3.97;;;20.00;63.80;;;;;;5001874;28;20536;-73
2023/01/10 03:06:47;;;;;;;7.88;3.78;;;20.00;64.10;;;;;;5005441;28;20037;-73
2023/01/10 03:09:16;;;;;;;9.20;3.40;;;20.00;64.30;;;;;;4959053;28;20395;-73
2023/01/10 03:11:45;;;;;;;8.88;3.60;;;20.00;64.40;;;;;;4992073;28;20052;-73
2023/01/10 03:14:24;;;;;;;6.95;3.13;;;20.00;64.50;;;;;;4992730;28;20505;-72
2023/01/10 03:16:57;;;;;;;7.32;3.25;;;20.00;64.70;;;;;;4992493;28;20097;-73
2023/01/10 03:19:27;;;;;;;5.93;3.35;;;20.00;64.70;;;;;;4998666;28;20044;-73
2023/01/10 03:21:56;;;;;;;7.07;3.25;;;20.00;64.80;;;;;;5009766;28;20310;-73
2023/01/10 03:24:35;;;;;;;9.80;3.22;;;20.00;64.80;;;;;;4996077;28;20502;-73
2023/01/10 03:27:14;;;;;;;10.63;3.83;;;20.00;65.00;;;;;;4989475;28;20486;-73
2023/01/10 03:29:44;;;;;;;10.25;3.22;;;20.00;65.00;;;;;;5008254;28;20056;-73
2023/01/10 03:32:12;;;;;;;6.82;3.45;;;20.00;65.10;;;;;;4991369;28;20033;-73
2023/01/10 03:34:38;;;;;;;7.30;2.90;;;20.00;65.10;;;;;;5009301;28;20097;-73
2023/01/10 03:37:13;;;;;;;6.50;3.30;;;20.00;65.20;;;;;;5009590;28;20030;-73
2023/01/10 03:39:41;;;;;;;6.78;3.35;;;20.00;65.20;;;;;;4973977;28;20422;-73
2023/01/10 03:42:23;;;;;;;7.15;3.28;;;20.00;65.20;;;;;;5000775;28;20118;-73
2023/01/10 03:45:05;;;;;;;7.47;2.95;;;20.10;65.20;;;;;;5008718;28;20378;-72
2023/01/10 03:47:34;;;;;;;6.05;3.28;;;20.10;65.20;;;;;;5001335;28;20021;-73
2023/01/10 03:50:10;;;;;;;10.38;2.97;;;20.10;65.50;;;;;;4992733;28;20076;-73
2023/01/10 03:52:41;;;;;;;8.75;3.50;;;20.10;65.20;;;;;;4987727;28;20021;-72
2023/01/10 03:55:10;;;;;;;6.30;2.75;;;20.10;65.20;;;;;;4989923;28;20481;-73
2023/01/10 03:57:36;;;;;;;8.13;3.03;;;20.00;65.10;;;;;;4990327;28;20386;-73
2023/01/10 04:00:03;;;;;;;5.75;2.80;;;20.00;65.30;;;;;;4995086;28;20041;-73
2023/01/10 04:02:31;;;;;;;7.18;2.95;;;20.00;65.30;;;;;;5008169;28;20425;-73
2023/01/10 04:04:57;;;;;;;4.65;3.00;;;20.00;65.60;;;;;;4991285;28;20034;-73
2023/01/10 04:07:24;;;;;;;6.53;3.38;;;20.00;65.40;;;;;;5000531;28;20104;-73
2023/01/10 04:09:50;;;;;;;8.68;3.03;;;20.00;65.60;;;;;;5009150;28;20064;-73
2023/01/10 04:12:16;;;;;;;4.88;2.72;;;20.00;65.50;;;;;;5008047;28;20088;-71
2023/01/10 04:14:44;;;;;;;9.30;3.15;;;20.00;65.30;;;;;;4994987;28;20131;-72
2023/01/10 04:17:10;;;;;;;6.65;2.95;;;20.00;65.80;;;;;;5002239;28;20053;-72
2023/01/10 04:19:36;;;;;;;10.35;3.10;;;20.00;65.70;;;;;;5008630;28;20470;-72
2023/01/10 04:22:02;;;;;;;9.38;3.30;;;20.00;65.30;;;;;;5000361;28;20038;-72
2023/01/10 04:24:27;;;;;;;6.10;2.88;;;20.00;65.60;;;;;;5002063;28;20022;-72
2023/01/10 04:26:53;;;;;;;6.80;2.90;;;20.00;65.30;;;;;;4999723;28;20028;-72
2023/01/10 04:29:19;;;;;;;4.57;2.88;;;20.00;65.90;;;;;;4990684;28;20033;-72
2023/01/10 04:31:44;;;;;;;8.80;2.83;;;20.00;65.90;;;;;;5008430;28;20037;-73
2023/01/10 04:34:10;;;;;;;5.45;3.00;;;20.00;65.90;;;;;;5001824;28;20026;-73
2023/01/10 04:36:36;;;;;;;6.93;2.95;;;20.10;66.10;;;;;;5008093;28;20038;-73
2023/01/10 04:39:03;;;;;;;9.48;2.88;;;20.10;65.60;;;;;;5008586;28;20069;-73
2023/01/10 04:41:29;;;;;;;4.05;2.55;;;20.00;65.70;;;;;;5008175;28;20026;-73
2023/01/10 04:43:55;;;;;;;6.45;3.00;;;20.10;65.90;;;;;;5008212;28;20033;-71
2023/01/10 04:46:21;;;;;;;4.60;2.60;;;20.10;65.70;;;;;;5008591;28;20045;-72
2023/01/10 04:48:46;;;;;;;10.30;3.15;;;20.10;65.90;;;;;;5009450;28;20029;-71
2023/01/10 04:51:12;;;;;;;7.57;2.70;;;20.10;66.10;;;;;;4990911;28;20037;-73
2023/01/10 04:53:38;;;;;;;5.63;2.85;;;20.00;65.90;;;;;;5002573;28;20031;-72
2023/01/10 04:56:06;;;;;;;5.20;2.83;;;20.10;65.70;;;;;;4988723;28;20046;-73
2023/01/10 04:58:36;;;;;;;4.82;2.60;;;20.10;66.10;;;;;;4993710;28;20026;-72
2023/01/10 05:01:14;;;;;;;8.32;2.70;;;20.10;65.80;;;;;;5007487;28;20486;-73
2023/01/10 05:03:40;;;;;;;6.60;2.50;;;20.10;65.80;;;;;;5006877;28;20748;-72
2023/01/10 05:06:06;;;;;;;5.63;2.63;;;20.00;65.60;;;;;;4997870;28;20101;-72
2023/01/10 05:08:32;;;;;;;6.32;2.85;;;20.00;65.70;;;;;;5005171;28;20022;-71
2023/01/10 05:10:58;;;;;;;8.32;2.65;;;20.00;65.70;;;;;;5008115;28;20363;-71
2023/01/10 05:13:25;;;;;;;6.00;2.50;;;20.00;65.80;;;;;;5001750;28;20109;-71
2023/01/10 05:15:55;;;;;;;8.02;2.90;;;20.00;65.90;;;;;;5006764;28;20080;-71
2023/01/10 05:18:21;;;;;;;5.25;2.65;;;20.00;65.90;;;;;;4990802;28;20109;-71
2023/01/10 05:20:47;;;;;;;6.00;2.45;;;20.00;65.90;;;;;;5007523;28;20030;-71
2023/01/10 05:23:13;;;;;;;5.10;2.72;;;20.00;65.70;;;;;;5007335;28;20464;-72
2023/01/10 05:25:38;;;;;;;6.95;2.85;;;20.00;65.90;;;;;;5008856;28;20049;-72
2023/01/10 05:28:04;;;;;;;6.38;2.85;;;20.00;65.90;;;;;;5012439;28;20034;-72
2023/01/10 05:30:30;;;;;;;7.18;2.65;;;20.00;66.00;;;;;;4967850;28;20034;-71
2023/01/10 05:32:56;;;;;;;5.95;2.65;;;20.00;66.00;;;;;;5002717;28;20033;-71
2023/01/10 05:35:21;;;;;;;5.47;2.53;;;20.00;66.00;;;;;;5007765;28;20034;-71
2023/01/10 05:37:47;;;;;;;4.13;2.42;;;20.00;65.90;;;;;;5007118;28;20426;-71
2023/01/10 05:40:13;;;;;;;6.00;2.85;;;20.00;66.20;;;;;;5008278;28;20029;-71
2023/01/10 05:42:38;;;;;;;4.35;2.42;;;20.00;66.00;;;;;;5008708;28;20018;-71
2023/01/10 05:45:05;;;;;;;6.95;2.92;;;20.00;65.80;;;;;;5016387;28;20536;-71
2023/01/10 05:47:30;;;;;;;7.03;2.90;;;20.00;65.80;;;;;;5010363;28;20036;-73
2023/01/10 05:49:56;;;;;;;5.72;2.58;;;20.00;66.00;;;;;;5001707;28;20030;-73
2023/01/10 05:52:22;;;;;;;6.43;2.65;;;20.00;66.00;;;;;;5009028;28;20034;-72
2023/01/10 05:54:48;;;;;;;5.18;2.60;;;20.00;66.30;;;;;;5011287;28;20045;-72
2023/01/10 05:57:13;;;;;;;6.47;2.45;;;20.00;65.90;;;;;;4993611;28;20030;-72
2023/01/10 05:59:39;;;;;;;5.45;2.70;;;20.00;65.90;;;;;;5005246;28;20034;-72
2023/01/10 06:02:05;;;;;;;6.55;2.70;;;20.00;65.90;;;;;;5007731;28;20022;-72
2023/01/10 06:04:31;;;;;;;6.72;2.95;;;20.00;66.60;;;;;;5010783;28;20462;-72
2023/01/10 06:06:57;;;;;;;7.65;2.70;;;20.00;66.30;;;;;;5012386;28;20450;-72
2023/01/10 06:09:22;;;;;;;6.03;2.50;;;20.00;66.30;;;;;;5009886;28;20096;-72
2023/01/10 06:11:48;;;;;;;6.28;2.72;;;20.00;66.20;;;;;;5007491;28;20314;-72
2023/01/10 06:14:18;;;;;;;6.20;2.55;;;20.00;66.20;;;;;;5011511;28;20037;-72
2023/01/10 06:16:44;;;;;;;6.05;2.88;;;20.00;66.50;;;;;;5011433;28;20038;-72
2023/01/10 06:19:10;;;;;;;6.03;2.58;;;20.00;66.20;;;;;;5008827;28;20168;-72
2023/01/10 06:21:36;;;;;;;8.35;2.78;;;19.90;66.30;;;;;;5008140;28;20124;-72
2023/01/10 06:24:02;;;;;;;8.13;2.90;;;20.00;66.10;;;;;;4994041;28;20393;-74
2023/01/10 06:26:28;;;;;;;7.82;2.55;;;20.00;66.90;;;;;;4993684;28;20179;-74
2023/01/10 06:28:54;;;;;;;7.53;2.63;;;20.00;66.90;;;;;;5010057;28;20521;-74
2023/01/10 06:31:19;;;;;;;4.32;2.38;;;20.10;66.80;;;;;;5018191;28;20026;-74
2023/01/10 06:33:45;;;;;;;9.13;2.45;;;20.00;66.50;;;;;;5011249;28;20026;-73
2023/01/10 06:36:11;;;;;;;6.05;2.42;;;20.00;66.20;;;;;;5010930;28;20159;-74
2023/01/10 06:38:37;;;;;;;12.23;2.63;;;20.00;66.40;;;;;;5010086;28;20042;-74
2023/01/10 06:41:11;;;;;;;4.88;2.40;;;20.00;66.60;;;;;;5011036;28;20038;-73
2023/01/10 06:43:45;;;;;;;5.07;2.58;;;20.00;67.00;;;;;;5011259;28;20389;-73
2023/01/10 06:46:15;;;;;;;9.93;2.67;;;20.00;65.90;;;;;;5009696;28;20029;-73
2023/01/10 06:48:43;;;;;;;7.18;3.10;;;20.00;66.20;;;;;;5008638;28;20037;-73
2023/01/10 06:51:09;;;;;;;7.43;2.90;;;20.00;65.70;;;;;;5010611;28;20037;-73
2023/01/10 06:53:35;;;;;;;8.00;3.58;;;20.00;66.90;;;;;;5010799;28;20030;-73
2023/01/10 06:56:01;;;;;;;10.30;3.70;;;20.10;66.40;;;;;;4992540;28;20064;-75
2023/01/10 06:58:27;;;;;;;12.90;4.03;;;20.00;66.50;;;;;;5008356;28;20026;-74
2023/01/10 07:00:53;;;;;;;21.70;4.82;;;20.10;67.00;;;;;;5004525;28;20125;-74
2023/01/10 07:03:20;;;;;;;31.55;5.88;;;20.10;69.60;;;;;;5010436;28;20113;-73
2023/01/10 07:05:45;;;;;;;18.13;4.68;;;20.10;71.80;;;;;;5010278;28;20022;-74
2023/01/10 07:08:11;;;;;;;21.08;4.47;;;20.20;70.60;;;;;;5008404;28;20116;-72
2023/01/10 07:10:40;;;;;;;15.18;3.97;;;20.10;69.80;;;;;;4991176;28;20050;-75
2023/01/10 07:13:06;;;;;;;21.97;9.37;;;20.10;68.60;;;;;;5000865;28;20046;-73
2023/01/10 07:15:32;;;;;;;17.17;6.53;;;20.10;68.40;;;;;;5009876;28;20041;-73
2023/01/10 07:17:57;;;;;;;18.48;6.85;;;20.10;70.40;;;;;;5008997;28;20029;-73
2023/01/10 07:20:23;;;;;;;18.38;5.68;;;20.10;69.20;;;;;;5010494;28;20038;-73
2023/01/10 07:22:57;;;;;;;17.05;5.22;;;20.10;68.70;;;;;;4992725;28;20045;-73
2023/01/10 07:25:24;;;;;;;17.08;5.93;;;20.10;68.70;;;;;;4992175;28;20104;-73
2023/01/10 07:27:50;;;;;;;20.83;5.57;;;20.10;68.60;;;;;;5010055;28;20026;-73
2023/01/10 07:30:16;;;;;;;20.75;6.18;;;20.10;68.60;;;;;;5010447;28;20164;-73
2023/01/10 07:32:42;;;;;;;14.65;5.32;;;20.00;68.50;;;;;;5009201;28;20030;-73
2023/01/10 07:35:08;;;;;;;19.50;5.93;;;20.00;68.20;;;;;;5010342;28;20056;-73
2023/01/10 07:37:34;;;;;;;14.55;5.15;;;20.00;68.40;;;;;;4991918;28;20025;-73
2023/01/10 07:39:59;;;;;;;15.00;5.32;;;20.00;68.40;;;;;;5010119;28;20061;-73
2023/01/10 07:42:25;;;;;;;14.00;5.22;;;20.00;68.30;;;;;;5008322;28;20101;-74
2023/01/10 07:44:51;;;;;;;22.92;5.90;;;20.10;68.40;;;;;;5010012;28;20026;-74
2023/01/10 07:47:17;;;;;;;14.35;5.25;;;20.10;68.50;;;;;;5007902;28;20104;-75
2023/01/10 07:49:42;;;;;;;14.13;4.88;;;20.10;69.20;;;;;;5009975;28;20045;-74
2023/01/10 07:52:08;;;;;;;16.55;5.18;;;20.00;68.80;;;;;;5009063;28;20089;-74
2023/01/10 07:54:35;;;;;;;10.32;4.72;;;20.00;68.60;;;;;;5000402;28;20117;-74
2023/01/10 07:57:01;;;;;;;13.60;4.78;;;20.00;68.60;;;;;;4991779;28;20029;-74
2023/01/10 07:59:27;;;;;;;14.82;5.53;;;20.00;68.70;;;;;;4976155;28;20033;-74
2023/01/10 08:01:53;;;;;;;13.23;5.13;;;20.00;68.70;;;;;;4995729;28;20100;-74
2023/01/10 08:04:19;;;;;;;10.85;4.65;;;20.00;68.70;;;;;;5008838;28;20022;-74
2023/01/10 08:06:45;;;;;;;11.13;5.13;;;20.00;69.30;;;;;;5008514;28;20484;-75
2023/01/10 08:09:10;;;;;;;11.90;5.28;;;20.00;68.70;;;;;;5009517;28;20443;-75
2023/01/10 08:11:36;;;;;;;14.68;5.20;;;20.00;68.60;;;;;;5009452;28;20589;-74
2023/01/10 08:14:02;;;;;;;12.52;5.00;;;20.00;68.70;;;;;;4991379;28;20026;-74
2023/01/10 08:16:28;;;;;;;11.68;5.15;;;20.00;68.60;;;;;;5008924;28;20030;-74
2023/01/10 08:18:53;;;;;;;14.38;4.93;;;20.00;68.60;;;;;;5009505;28;20030;-75
2023/01/10 08:21:19;;;;;;;12.98;5.10;;;20.00;68.50;;;;;;5009306;28;20109;-74
2023/01/10 08:23:45;;;;;;;14.77;4.80;;;20.00;68.40;;;;;;5009271;28;20033;-75
2023/01/10 08:26:11;;;;;;;13.15;4.68;;;20.00;68.50;;;;;;4990966;28;20053;-74
2023/01/10 08:28:36;;;;;;;11.38;5.10;;;20.00;68.40;;;;;;5009560;28;20399;-75
2023/01/10 08:31:08;;;;;;;11.43;4.53;;;20.00;68.30;;;;;;5009355;28;20481;-74
2023/01/10 08:33:36;;;;;;;11.40;5.30;;;20.00;68.60;;;;;;5009374;28;20285;-74
2023/01/10 08:36:02;;;;;;;12.40;5.07;;;20.00;68.50;;;;;;5008591;28;20038;-74
2023/01/10 08:38:28;;;;;;;10.85;4.38;;;20.00;68.40;;;;;;5009082;28;20490;-74
2023/01/10 08:40:57;;;;;;;13.43;4.68;;;20.00;68.40;;;;;;4991544;28;20401;-74
2023/01/10 08:43:22;;;;;;;11.07;4.47;;;20.00;68.40;;;;;;4991459;28;20689;-75
2023/01/10 08:45:48;;;;;;;12.27;4.90;;;20.00;68.30;;;;;;5008071;28;20030;-75
2023/01/10 08:48:14;;;;;;;11.23;4.50;;;20.00;68.60;;;;;;5009054;28;20092;-74
2023/01/10 08:50:40;;;;;;;11.88;4.63;;;20.00;68.30;;;;;;5007981;28;20490;-75
2023/01/10 08:53:06;;;;;;;10.93;4.78;;;20.00;68.30;;;;;;5008036;28;20034;-75
2023/01/10 08:55:35;;;;;;;13.63;4.63;;;20.00;68.30;;;;;;5007266;28;20034;-75
2023/01/10 08:58:01;;;;;;;14.20;5.00;;;20.00;68.40;;;;;;5008946;28;20095;-74
2023/01/10 09:00:28;;;;;;;7.00;4.38;;;20.00;68.20;;;;;;5008233;28;20030;-74
2023/01/10 09:02:54;;;;;;;12.93;4.53;;;20.00;68.40;;;;;;4990923;28;20062;-74
2023/01/10 09:05:19;;;;;;;8.90;4.60;;;20.00;68.30;;;;;;5009209;28;20056;-74
2023/01/10 09:07:45;;;;;;;9.82;4.70;;;20.00;68.30;;;;;;4991505;28;20034;-74
2023/01/10 09:10:11;;;;;;;9.02;4.57;;;20.00;68.30;;;;;;5007279;28;20045;-74
2023/01/10 09:12:55;;;;;;;15.45;5.28;;;20.00;68.30;;;;;;5006114;28;20034;-75
2023/01/10 09:15:26;;;;;;;11.27;4.43;;;20.00;68.20;;;;;;4990678;28;20119;-74
2023/01/10 09:17:57;;;;;;;17.30;4.97;;;20.00;68.50;;;;;;4989567;28;20041;-78
2023/01/10 09:20:25;;;;;;;13.60;5.63;;;20.00;68.00;;;;;;5007779;28;20104;-74
2023/01/10 09:22:51;;;;;;;10.60;4.90;;;20.00;69.10;;;;;;5007752;28;20355;-74
2023/01/10 09:25:16;;;;;;;11.32;4.85;;;20.00;68.00;;;;;;5012410;28;20026;-74
2023/01/10 09:27:42;;;;;;;13.95;4.78;;;20.00;68.10;;;;;;5012077;28;20500;-73
2023/01/10 09:30:09;;;;;;;11.63;4.80;;;20.00;67.90;;;;;;4995262;28;20125;-74
2023/01/10 09:32:35;;;;;;;14.13;4.85;;;20.00;68.00;;;;;;4984402;28;20026;-74
2023/01/10 09:35:01;;;;;;;19.05;5.22;;;20.00;68.20;;;;;;5010735;28;20072;-74
2023/01/10 09:37:27;;;;;;;14.10;5.05;;;20.00;68.10;;;;;;5012106;28;20490;-73
2023/01/10 09:39:53;;;;;;;16.30;5.05;;;20.00;68.00;;;;;;4991120;28;20423;-73
2023/01/10 09:42:44;;;;;;;13.50;4.90;;;20.00;68.10;;;;;;5010910;28;20022;-73
2023/01/10 09:45:16;;;;;;;12.30;4.70;;;20.00;68.20;;;;;;5011721;28;20040;-72
2023/01/10 09:48:03;;;;;;;12.98;4.57;;;20.00;68.30;;;;;;5005054;28;20220;-73
2023/01/10 09:50:35;;;;;;;11.73;4.75;;;20.00;68.20;;;;;;5010833;28;20517;-73
2023/01/10 09:53:08;;;;;;;11.18;5.00;;;20.00;68.20;;;;;;5007957;28;20046;-74
2023/01/10 09:55:36;;;;;;;13.77;4.20;;;20.00;68.30;;;;;;5010951;28;20034;-73
2023/01/10 09:58:15;;;;;;;14.82;4.60;;;20.00;68.20;;;;;;5013438;28;20030;-75
2023/01/10 10:01:06;;;;;;;10.60;4.72;;;20.00;68.10;;;;;;5010108;28;20040;-73
2023/01/10 10:04:17;;;;;;;14.45;5.18;;;20.00;68.00;;;;;;5007004;28;20034;-73
2023/01/10 10:06:43;;;;;;;13.20;4.88;;;20.00;67.90;;;;;;4988309;28;20136;-74
2023/01/10 10:09:16;;;;;;;12.93;5.05;;;20.00;68.20;;;;;;5011064;28;20045;-74
2023/01/10 10:12:15;;;;;;;14.07;4.70;;;20.00;68.30;;;;;;5009080;28;20042;-74
2023/01/10 10:14:57;;;;;;;16.10;5.30;;;20.10;67.80;;;;;;5003832;28;20040;-75
2023/01/10 10:17:38;;;;;;;16.08;4.70;;;20.00;67.70;;;;;;5003933;28;20092;-74
2023/01/10 10:20:41;;;;;;;19.20;4.72;;;20.00;67.80;;;;;;5011556;28;20060;-74
2023/01/10 10:23:07;;;;;;;15.15;4.75;;;20.00;68.20;;;;;;5009494;28;20050;-74
2023/01/10 10:26:11;;;;;;;19.48;4.47;;;20.10;68.00;;;;;;4994257;28;20033;-74
2023/01/10 10:29:18;;;;;;;28.58;5.78;;;20.10;68.80;;;;;;5003192;28;20034;-74
2023/01/10 10:31:52;;;;;;;18.63;5.28;;;20.10;68.40;;;;;;5004142;28;20560;-74
2023/01/10 10:34:37;;;;;;;16.05;5.32;;;20.10;68.80;;;;;;4993047;28;20049;-74
2023/01/10 10:37:33;;;;;;;20.63;5.97;;;20.20;69.70;;;;;;5009867;28;20575;-73
2023/01/10 10:40:18;;;;;;;18.85;5.60;;;20.30;69.10;;;;;;5000164;28;20033;-73
2023/01/10 10:42:49;;;;;;;36.28;7.10;;;20.30;70.30;;;;;;4992415;28;20109;-73
2023/01/10 10:45:25;;;;;;;23.58;5.20;;;20.40;70.60;;;;;;4985256;28;20033;-73
2023/01/10 10:48:09;;;;;;;20.08;4.57;;;20.00;63.90;;;;;;4993502;28;20030;-74
2023/01/10 10:50:46;;;;;;;14.48;4.07;;;19.60;58.00;;;;;;5010588;28;20089;-74
2023/01/10 10:53:11;;;;;;;21.23;5.43;;;19.30;55.70;;;;;;5008604;28;20113;-73
2023/01/10 10:55:37;;;;;;;18.13;7.15;;;19.10;55.00;;;;;;5010849;28;20461;-72
2023/01/10 10:58:06;;;;;;;16.80;5.90;;;19.10;54.40;;;;;;5010775;28;20025;-72
2023/01/10 11:00:32;;;;;;;18.00;6.60;;;19.20;56.20;;;;;;4992694;28;20037;-72
2023/01/10 11:03:27;;;;;;;19.77;6.72;;;19.30;56.30;;;;;;5013374;23;20084;-72
2023/01/10 11:05:53;;;;;;;19.85;5.93;;;19.40;56.80;;;;;;5005247;28;20065;-72
2023/01/10 11:08:21;;;;;;;21.05;6.53;;;19.50;57.60;;;;;;5028672;28;20033;-72
2023/01/10 11:10:52;;;;;;;20.23;5.53;;;19.60;57.90;;;;;;4995623;28;20033;-72
2023/01/10 11:13:29;;;;;;;15.48;5.57;;;19.60;58.90;;;;;;5029945;28;20060;-72
2023/01/10 11:15:55;;;;;;;15.25;5.35;;;19.70;59.50;;;;;;5030228;28;20033;-72
2023/01/10 11:18:24;;;;;;;18.50;4.93;;;19.70;59.20;;;;;;4994937;28;20029;-72
2023/01/10 11:21:01;;;;;;;16.33;5.47;;;19.70;60.10;;;;;;5011839;28;20021;-71
2023/01/10 11:23:49;;;;;;;15.90;4.82;;;19.70;60.60;;;;;;4992697;28;20040;-72
2023/01/10 11:26:38;;;;;;;14.18;4.70;;;19.80;60.80;;;;;;5019905;28;20029;-73
2023/01/10 11:29:13;;;;;;;20.50;5.18;;;19.90;61.10;;;;;;5029547;28;20021;-72
2023/01/10 11:31:39;;;;;;;13.52;4.88;;;19.90;61.30;;;;;;5029905;28;20043;-72
2023/01/10 11:34:39;;;;;;;14.98;5.40;;;19.90;61.00;;;;;;5030154;28;20591;-73
2023/01/10 11:37:30;;;;;;;12.32;4.97;;;20.00;61.00;;;;;;4976547;28;20045;-72
2023/01/10 11:40:17;;;;;;;18.80;5.80;;;20.00;61.10;;;;;;5027947;28;20087;-73
2023/01/10 11:42:43;;;;;;;26.95;5.80;;;20.00;62.90;;;;;;5011471;28;20173;-73
2023/01/10 11:45:18;;;;;;;20.10;5.90;;;20.00;64.30;;;;;;5011414;28;20025;-73
2023/01/10 11:48:01;;;;;;;14.68;5.07;;;20.00;64.70;;;;;;5011575;28;20110;-73
2023/01/10 11:50:31;;;;;;;15.38;5.75;;;20.10;64.10;;;;;;5022731;28;20021;-73
2023/01/10 11:52:56;;;;;;;;;;;20.10;63.60;;;;;;5029865;28;20053;-73
2023/01/10 11:55:26;;;;;;;13.05;5.30;;;20.10;63.20;;;;;;5029433;28;19982;-73
2023/01/10 11:58:04;;;;;;;16.00;5.88;;;20.10;63.00;;;;;;5011370;28;20461;-73
2023/01/10 12:00:33;;;;;;;17.08;6.43;;;20.20;62.90;;;;;;5028666;28;20091;-73
2023/01/10 12:03:00;;;;;;;18.67;5.57;;;20.20;63.20;;;;;;5010725;28;20029;-73
2023/01/10 12:05:26;;;;;;;34.25;6.50;;;20.20;63.80;;;;;;5028845;28;20049;-73
2023/01/10 12:08:09;;;;;;;16.52;5.45;;;20.20;63.60;;;;;;5010517;28;20033;-73
2023/01/10 12:10:35;;;;;;;16.23;5.35;;;20.20;63.30;;;;;;4992038;28;20121;-73
2023/01/10 12:13:15;;;;;;;15.93;5.85;;;20.20;63.20;;;;;;5009152;28;20029;-72
2023/01/10 12:15:41;;;;;;;20.73;5.13;;;20.20;63.20;;;;;;5025601;28;20184;-72
2023/01/10 12:18:09;;;;;;;15.70;5.28;;;20.20;63.10;;;;;;5029256;28;20113;-73
2023/01/10 12:20:46;;;;;;;13.60;5.80;;;20.20;63.20;;;;;;5029267;28;20513;-72
2023/01/10 12:23:17;;;;;;;13.40;5.10;;;20.30;63.30;;;;;;5028976;28;20440;-72
2023/01/10 12:25:44;;;;;;;13.30;4.57;;;20.30;63.30;;;;;;5028619;28;20104;-73
2023/01/10 12:28:19;;;;;;;15.65;5.20;;;20.30;63.30;;;;;;5029013;28;20545;-72
2023/01/10 12:30:49;;;;;;;14.10;5.18;;;20.30;63.30;;;;;;5029301;28;20053;-72
2023/01/10 12:33:26;;;;;;;;;;;20.30;63.30;;;;;;5009619;28;20410;-73
2023/01/10 12:36:23;;;;;;;11.73;4.60;;;20.30;63.40;;;;;;5029115;28;19940;-73
2023/01/10 12:39:13;;;;;;;14.52;4.47;;;20.30;63.40;;;;;;4992001;28;20030;-73
2023/01/10 12:44:40;;;;;;;11.77;4.80;;;20.30;63.50;;;;;;5028349;28;20053;-73
2023/01/10 12:47:23;;;;;;;12.60;4.90;;;20.30;63.60;;;;;;5028839;28;20133;-73
2023/01/10 12:49:59;;;;;;;10.40;4.18;;;20.30;63.60;;;;;;5029124;28;20069;-72
2023/01/10 12:52:44;;;;;;;10.63;4.35;;;20.30;64.30;;;;;;5030087;28;20045;-73
2023/01/10 12:55:17;;;;;;;15.75;4.50;;;20.30;63.50;;;;;;5013103;28;20025;-72
2023/01/10 12:57:52;;;;;;;13.55;4.88;;;20.30;63.60;;;;;;5016615;28;20108;-72
2023/01/10 13:00:28;;;;;;;13.25;4.15;;;20.30;63.60;;;;;;5027628;28;20513;-73
2023/01/10 13:02:57;;;;;;;11.20;3.92;;;20.30;63.70;;;;;;5031817;28;20052;-72
2023/01/10 13:05:29;;;;;;;16.80;5.60;;;20.30;63.60;;;;;;5025222;28;20517;-72
2023/01/10 13:08:01;;;;;;;14.73;4.70;;;20.30;63.90;;;;;;5031893;28;20643;-72